sensor_id;sensor_type;location;lat;lon;timestamp;P1;durP1;ratioP1;P2;durP2;ratioP2
11191;SDS011;5652;48.406;10.820;2022-08-24T00:01:16;7.60;;;4.90;;
11191;SDS011;5652;48.406;10.820;2022-08-24T00:03:44;8.65;;;5.50;;
11191;SDS011;5652;48.406;10.820;2022-08-24T00:06:12;6.93;;;5.63;;
11191;SDS011;5652;48.406;10.820;2022-08-24T00:08:40;7.05;;;5.68;;
11191;SDS011;5652;48.406;10.820;2022-08-24T00:11:08;8.73;;;5.68;;
11191;SDS011;5652;48.406;10.820;2022-08-24T00:13:37;7.90;;;5.60;;
11191;SDS011;5652;48.406;10.820;2022-08-24T00:16:04;6.97;;;5.38;;
11191;SDS011;5652;48.406;10.820;2022-08-24T00:18:31;6.93;;;5.53;;
11191;SDS011;5652;48.406;10.820;2022-08-24T00:20:58;9.40;;;5.38;;
11191;SDS011;5652;48.406;10.820;2022-08-24T00:23:25;7.40;;;5.47;;
11191;SDS011;5652;48.406;10.820;2022-08-24T00:25:53;6.90;;;5.65;;
11191;SDS011;5652;48.406;10.820;2022-08-24T00:28:20;7.65;;;5.18;;
11191;SDS011;5652;48.406;10.820;2022-08-24T00:30:48;7.13;;;5.47;;
11191;SDS011;5652;48.406;10.820;2022-08-24T00:33:16;9.07;;;5.68;;
11191;SDS011;5652;48.406;10.820;2022-08-24T00:35:43;6.40;;;5.40;;
11191;SDS011;5652;48.406;10.820;2022-08-24T00:38:10;8.13;;;5.40;;
11191;SDS011;5652;48.406;10.820;2022-08-24T00:40:38;5.65;;;4.30;;
11191;SDS011;5652;48.406;10.820;2022-08-24T00:43:06;5.80;;;4.47;;
11191;SDS011;5652;48.406;10.820;2022-08-24T00:45:35;6.22;;;4.85;;
11191;SDS011;5652;48.406;10.820;2022-08-24T00:48:05;6.55;;;5.40;;
11191;SDS011;5652;48.406;10.820;2022-08-24T00:50:33;7.68;;;5.22;;
11191;SDS011;5652;48.406;10.820;2022-08-24T00:53:04;6.05;;;5.00;;
11191;SDS011;5652;48.406;10.820;2022-08-24T00:55:33;6.85;;;5.10;;
11191;SDS011;5652;48.406;10.820;2022-08-24T00:58:01;7.25;;;4.90;;
11191;SDS011;5652;48.406;10.820;2022-08-24T01:00:29;8.38;;;5.18;;
11191;SDS011;5652;48.406;10.820;2022-08-24T01:02:58;10.35;;;4.82;;
11191;SDS011;5652;48.406;10.820;2022-08-24T01:05:29;6.28;;;4.70;;
11191;SDS011;5652;48.406;10.820;2022-08-24T01:07:57;5.97;;;4.70;;
11191;SDS011;5652;48.406;10.820;2022-08-24T01:10:25;6.72;;;4.68;;
11191;SDS011;5652;48.406;10.820;2022-08-24T01:12:53;7.10;;;4.85;;
11191;SDS011;5652;48.406;10.820;2022-08-24T01:15:21;6.05;;;4.88;;
11191;SDS011;5652;48.406;10.820;2022-08-24T01:17:48;6.72;;;4.85;;
11191;SDS011;5652;48.406;10.820;2022-08-24T01:20:35;6.53;;;4.55;;
11191;SDS011;5652;48.406;10.820;2022-08-24T01:23:04;6.75;;;5.30;;
11191;SDS011;5652;48.406;10.820;2022-08-24T01:25:34;10.57;;;5.18;;
11191;SDS011;5652;48.406;10.820;2022-08-24T01:28:04;8.98;;;5.47;;
11191;SDS011;5652;48.406;10.820;2022-08-24T01:30:31;11.65;;;6.20;;
11191;SDS011;5652;48.406;10.820;2022-08-24T01:32:59;8.27;;;5.78;;
11191;SDS011;5652;48.406;10.820;2022-08-24T01:35:27;9.57;;;5.95;;
11191;SDS011;5652;48.406;10.820;2022-08-24T01:37:57;8.60;;;5.82;;
11191;SDS011;5652;48.406;10.820;2022-08-24T01:40:27;6.55;;;5.15;;
11191;SDS011;5652;48.406;10.820;2022-08-24T01:42:58;9.27;;;5.65;;
11191;SDS011;5652;48.406;10.820;2022-08-24T01:45:25;6.88;;;5.50;;
11191;SDS011;5652;48.406;10.820;2022-08-24T01:47:53;6.43;;;5.45;;
11191;SDS011;5652;48.406;10.820;2022-08-24T01:50:20;9.10;;;5.80;;
11191;SDS011;5652;48.406;10.820;2022-08-24T01:52:47;9.67;;;5.70;;
11191;SDS011;5652;48.406;10.820;2022-08-24T01:55:15;11.02;;;5.90;;
11191;SDS011;5652;48.406;10.820;2022-08-24T01:57:42;10.30;;;5.88;;
11191;SDS011;5652;48.406;10.820;2022-08-24T02:00:11;10.25;;;6.50;;
11191;SDS011;5652;48.406;10.820;2022-08-24T02:02:40;9.75;;;6.47;;
11191;SDS011;5652;48.406;10.820;2022-08-24T02:05:08;10.40;;;6.28;;
11191;SDS011;5652;48.406;10.820;2022-08-24T02:07:35;8.40;;;5.82;;
11191;SDS011;5652;48.406;10.820;2022-08-24T02:10:02;8.48;;;5.63;;
11191;SDS011;5652;48.406;10.820;2022-08-24T02:12:30;9.10;;;5.90;;
11191;SDS011;5652;48.406;10.820;2022-08-24T02:14:58;7.28;;;5.53;;
11191;SDS011;5652;48.406;10.820;2022-08-24T02:17:28;8.35;;;6.22;;
11191;SDS011;5652;48.406;10.820;2022-08-24T02:23:02;7.13;;;5.55;;
11191;SDS011;5652;48.406;10.820;2022-08-24T02:25:31;8.40;;;5.60;;
11191;SDS011;5652;48.406;10.820;2022-08-24T02:27:58;8.37;;;5.70;;
11191;SDS011;5652;48.406;10.820;2022-08-24T02:30:25;6.60;;;4.97;;
11191;SDS011;5652;48.406;10.820;2022-08-24T02:32:54;8.45;;;5.25;;
11191;SDS011;5652;48.406;10.820;2022-08-24T02:35:21;7.10;;;5.68;;
11191;SDS011;5652;48.406;10.820;2022-08-24T02:37:48;7.07;;;5.85;;
11191;SDS011;5652;48.406;10.820;2022-08-24T02:40:16;8.43;;;5.90;;
11191;SDS011;5652;48.406;10.820;2022-08-24T02:42:43;9.32;;;5.40;;
11191;SDS011;5652;48.406;10.820;2022-08-24T02:45:10;8.05;;;5.50;;
11191;SDS011;5652;48.406;10.820;2022-08-24T02:47:37;7.60;;;5.78;;
11191;SDS011;5652;48.406;10.820;2022-08-24T02:50:07;8.48;;;5.78;;
11191;SDS011;5652;48.406;10.820;2022-08-24T02:52:35;11.07;;;5.73;;
11191;SDS011;5652;48.406;10.820;2022-08-24T02:55:03;6.57;;;5.28;;
11191;SDS011;5652;48.406;10.820;2022-08-24T02:57:31;9.37;;;5.53;;
11191;SDS011;5652;48.406;10.820;2022-08-24T02:59:58;9.38;;;6.32;;
11191;SDS011;5652;48.406;10.820;2022-08-24T03:02:25;7.28;;;5.57;;
11191;SDS011;5652;48.406;10.820;2022-08-24T03:04:52;10.37;;;5.97;;
11191;SDS011;5652;48.406;10.820;2022-08-24T03:07:21;12.20;;;6.13;;
11191;SDS011;5652;48.406;10.820;2022-08-24T03:09:48;9.30;;;6.13;;
11191;SDS011;5652;48.406;10.820;2022-08-24T03:12:15;8.50;;;6.03;;
11191;SDS011;5652;48.406;10.820;2022-08-24T03:14:42;9.67;;;5.83;;
11191;SDS011;5652;48.406;10.820;2022-08-24T03:17:10;7.63;;;5.50;;
11191;SDS011;5652;48.406;10.820;2022-08-24T03:19:37;6.10;;;5.20;;
11191;SDS011;5652;48.406;10.820;2022-08-24T03:22:04;7.53;;;5.57;;
11191;SDS011;5652;48.406;10.820;2022-08-24T03:24:32;7.50;;;5.50;;
11191;SDS011;5652;48.406;10.820;2022-08-24T03:27:00;9.15;;;5.60;;
11191;SDS011;5652;48.406;10.820;2022-08-24T03:29:29;7.65;;;5.40;;
11191;SDS011;5652;48.406;10.820;2022-08-24T03:31:57;9.20;;;5.85;;
11191;SDS011;5652;48.406;10.820;2022-08-24T03:34:24;13.27;;;5.97;;
11191;SDS011;5652;48.406;10.820;2022-08-24T03:36:51;9.15;;;7.00;;
11191;SDS011;5652;48.406;10.820;2022-08-24T03:39:18;10.77;;;6.70;;
11191;SDS011;5652;48.406;10.820;2022-08-24T03:41:46;9.30;;;6.72;;
11191;SDS011;5652;48.406;10.820;2022-08-24T03:44:14;9.67;;;6.87;;
11191;SDS011;5652;48.406;10.820;2022-08-24T03:46:41;8.25;;;6.65;;
11191;SDS011;5652;48.406;10.820;2022-08-24T03:49:10;7.93;;;5.70;;
11191;SDS011;5652;48.406;10.820;2022-08-24T03:51:38;7.97;;;5.45;;
11191;SDS011;5652;48.406;10.820;2022-08-24T03:54:06;6.93;;;5.57;;
11191;SDS011;5652;48.406;10.820;2022-08-24T03:56:35;9.25;;;5.57;;
11191;SDS011;5652;48.406;10.820;2022-08-24T03:59:03;8.07;;;5.38;;
11191;SDS011;5652;48.406;10.820;2022-08-24T04:01:31;7.63;;;5.38;;
11191;SDS011;5652;48.406;10.820;2022-08-24T04:03:58;11.02;;;5.90;;
11191;SDS011;5652;48.406;10.820;2022-08-24T04:06:26;7.65;;;6.10;;
11191;SDS011;5652;48.406;10.820;2022-08-24T04:08:54;8.90;;;6.13;;
11191;SDS011;5652;48.406;10.820;2022-08-24T04:11:23;8.00;;;6.30;;
11191;SDS011;5652;48.406;10.820;2022-08-24T04:13:50;9.70;;;6.57;;
11191;SDS011;5652;48.406;10.820;2022-08-24T04:16:19;10.18;;;6.22;;
11191;SDS011;5652;48.406;10.820;2022-08-24T04:18:47;9.25;;;6.32;;
11191;SDS011;5652;48.406;10.820;2022-08-24T04:21:14;8.53;;;6.47;;
11191;SDS011;5652;48.406;10.820;2022-08-24T04:23:42;11.88;;;6.57;;
11191;SDS011;5652;48.406;10.820;2022-08-24T04:26:09;13.57;;;7.20;;
11191;SDS011;5652;48.406;10.820;2022-08-24T04:28:36;9.80;;;7.30;;
11191;SDS011;5652;48.406;10.820;2022-08-24T04:31:04;8.27;;;6.65;;
11191;SDS011;5652;48.406;10.820;2022-08-24T04:33:33;9.48;;;6.85;;
11191;SDS011;5652;48.406;10.820;2022-08-24T04:36:00;10.95;;;7.38;;
11191;SDS011;5652;48.406;10.820;2022-08-24T04:38:27;13.77;;;7.63;;
11191;SDS011;5652;48.406;10.820;2022-08-24T04:40:55;8.15;;;6.25;;
11191;SDS011;5652;48.406;10.820;2022-08-24T04:43:22;13.13;;;6.05;;
11191;SDS011;5652;48.406;10.820;2022-08-24T04:45:50;9.52;;;5.90;;
11191;SDS011;5652;48.406;10.820;2022-08-24T04:48:17;7.78;;;5.50;;
11191;SDS011;5652;48.406;10.820;2022-08-24T04:50:46;11.00;;;6.00;;
11191;SDS011;5652;48.406;10.820;2022-08-24T04:53:13;8.95;;;5.75;;
11191;SDS011;5652;48.406;10.820;2022-08-24T04:55:41;11.27;;;5.75;;
11191;SDS011;5652;48.406;10.820;2022-08-24T04:58:08;8.30;;;5.47;;
11191;SDS011;5652;48.406;10.820;2022-08-24T05:00:36;8.98;;;5.80;;
11191;SDS011;5652;48.406;10.820;2022-08-24T05:03:05;8.77;;;5.60;;
11191;SDS011;5652;48.406;10.820;2022-08-24T05:05:32;9.07;;;5.73;;
11191;SDS011;5652;48.406;10.820;2022-08-24T05:08:00;10.88;;;6.00;;
11191;SDS011;5652;48.406;10.820;2022-08-24T05:10:28;10.52;;;6.55;;
11191;SDS011;5652;48.406;10.820;2022-08-24T05:12:55;9.88;;;6.82;;
11191;SDS011;5652;48.406;10.820;2022-08-24T05:15:22;10.10;;;6.28;;
11191;SDS011;5652;48.406;10.820;2022-08-24T05:17:49;10.75;;;6.80;;
11191;SDS011;5652;48.406;10.820;2022-08-24T05:20:16;11.40;;;7.30;;
11191;SDS011;5652;48.406;10.820;2022-08-24T05:22:44;10.60;;;6.97;;
11191;SDS011;5652;48.406;10.820;2022-08-24T05:25:12;14.90;;;8.35;;
11191;SDS011;5652;48.406;10.820;2022-08-24T05:27:39;12.20;;;7.22;;
11191;SDS011;5652;48.406;10.820;2022-08-24T05:30:07;10.80;;;7.10;;
11191;SDS011;5652;48.406;10.820;2022-08-24T05:32:35;10.25;;;7.15;;
11191;SDS011;5652;48.406;10.820;2022-08-24T05:35:02;12.05;;;8.00;;
11191;SDS011;5652;48.406;10.820;2022-08-24T05:37:29;11.52;;;8.65;;
11191;SDS011;5652;48.406;10.820;2022-08-24T05:39:57;12.10;;;9.05;;
11191;SDS011;5652;48.406;10.820;2022-08-24T05:42:25;14.40;;;9.52;;
11191;SDS011;5652;48.406;10.820;2022-08-24T05:44:52;15.63;;;9.70;;
11191;SDS011;5652;48.406;10.820;2022-08-24T05:47:21;13.05;;;9.15;;
11191;SDS011;5652;48.406;10.820;2022-08-24T05:49:48;12.73;;;9.47;;
11191;SDS011;5652;48.406;10.820;2022-08-24T05:52:17;14.60;;;9.83;;
11191;SDS011;5652;48.406;10.820;2022-08-24T05:54:44;13.57;;;9.80;;
11191;SDS011;5652;48.406;10.820;2022-08-24T05:57:12;14.20;;;9.63;;
11191;SDS011;5652;48.406;10.820;2022-08-24T05:59:41;12.35;;;9.07;;
11191;SDS011;5652;48.406;10.820;2022-08-24T06:02:08;12.43;;;9.38;;
11191;SDS011;5652;48.406;10.820;2022-08-24T06:04:35;10.65;;;8.55;;
11191;SDS011;5652;48.406;10.820;2022-08-24T06:07:02;11.53;;;9.03;;
11191;SDS011;5652;48.406;10.820;2022-08-24T06:09:31;9.30;;;7.57;;
11191;SDS011;5652;48.406;10.820;2022-08-24T06:11:58;7.95;;;6.45;;
11191;SDS011;5652;48.406;10.820;2022-08-24T06:14:25;8.20;;;5.28;;
11191;SDS011;5652;48.406;10.820;2022-08-24T06:16:53;6.28;;;5.30;;
11191;SDS011;5652;48.406;10.820;2022-08-24T06:19:21;7.33;;;5.30;;
11191;SDS011;5652;48.406;10.820;2022-08-24T06:21:49;7.30;;;5.15;;
11191;SDS011;5652;48.406;10.820;2022-08-24T06:24:18;8.68;;;5.47;;
11191;SDS011;5652;48.406;10.820;2022-08-24T06:27:07;8.38;;;5.78;;
11191;SDS011;5652;48.406;10.820;2022-08-24T06:29:45;9.57;;;5.18;;
11191;SDS011;5652;48.406;10.820;2022-08-24T06:32:13;5.93;;;4.67;;
11191;SDS011;5652;48.406;10.820;2022-08-24T06:34:41;7.00;;;4.82;;
11191;SDS011;5652;48.406;10.820;2022-08-24T06:37:08;5.13;;;4.53;;
11191;SDS011;5652;48.406;10.820;2022-08-24T06:39:35;7.67;;;4.43;;
11191;SDS011;5652;48.406;10.820;2022-08-24T06:42:02;8.93;;;4.90;;
11191;SDS011;5652;48.406;10.820;2022-08-24T06:44:30;4.93;;;4.00;;
11191;SDS011;5652;48.406;10.820;2022-08-24T06:46:57;6.43;;;4.43;;
11191;SDS011;5652;48.406;10.820;2022-08-24T06:49:26;5.20;;;4.10;;
11191;SDS011;5652;48.406;10.820;2022-08-24T06:51:54;5.00;;;4.00;;
11191;SDS011;5652;48.406;10.820;2022-08-24T06:54:21;5.28;;;4.40;;
11191;SDS011;5652;48.406;10.820;2022-08-24T06:56:48;7.13;;;4.97;;
11191;SDS011;5652;48.406;10.820;2022-08-24T06:59:15;9.63;;;4.97;;
11191;SDS011;5652;48.406;10.820;2022-08-24T07:01:43;8.52;;;4.80;;
11191;SDS011;5652;48.406;10.820;2022-08-24T07:04:10;7.13;;;5.10;;
11191;SDS011;5652;48.406;10.820;2022-08-24T07:06:38;6.18;;;4.75;;
11191;SDS011;5652;48.406;10.820;2022-08-24T07:09:05;8.30;;;5.30;;
11191;SDS011;5652;48.406;10.820;2022-08-24T07:11:32;8.68;;;4.78;;
11191;SDS011;5652;48.406;10.820;2022-08-24T07:13:59;10.00;;;4.80;;
11191;SDS011;5652;48.406;10.820;2022-08-24T07:16:27;8.13;;;5.15;;
11191;SDS011;5652;48.406;10.820;2022-08-24T07:18:55;10.57;;;5.22;;
11191;SDS011;5652;48.406;10.820;2022-08-24T07:21:23;8.40;;;5.20;;
11191;SDS011;5652;48.406;10.820;2022-08-24T07:23:54;9.50;;;5.05;;
11191;SDS011;5652;48.406;10.820;2022-08-24T07:26:22;7.45;;;4.97;;
11191;SDS011;5652;48.406;10.820;2022-08-24T07:28:51;6.87;;;4.93;;
11191;SDS011;5652;48.406;10.820;2022-08-24T07:31:18;5.70;;;5.10;;
11191;SDS011;5652;48.406;10.820;2022-08-24T07:33:46;6.70;;;5.28;;
11191;SDS011;5652;48.406;10.820;2022-08-24T07:36:13;6.95;;;5.00;;
11191;SDS011;5652;48.406;10.820;2022-08-24T07:38:43;8.13;;;5.47;;
11191;SDS011;5652;48.406;10.820;2022-08-24T07:41:12;6.03;;;4.97;;
11191;SDS011;5652;48.406;10.820;2022-08-24T07:43:39;8.40;;;5.30;;
11191;SDS011;5652;48.406;10.820;2022-08-24T07:46:06;5.30;;;4.80;;
11191;SDS011;5652;48.406;10.820;2022-08-24T07:48:33;6.30;;;5.30;;
11191;SDS011;5652;48.406;10.820;2022-08-24T07:51:05;7.00;;;4.90;;
11191;SDS011;5652;48.406;10.820;2022-08-24T07:53:32;5.82;;;4.57;;
11191;SDS011;5652;48.406;10.820;2022-08-24T07:56:00;5.75;;;4.97;;
11191;SDS011;5652;48.406;10.820;2022-08-24T07:58:28;8.10;;;5.05;;
11191;SDS011;5652;48.406;10.820;2022-08-24T08:00:55;8.63;;;4.90;;
11191;SDS011;5652;48.406;10.820;2022-08-24T08:03:23;7.45;;;4.40;;
11191;SDS011;5652;48.406;10.820;2022-08-24T08:05:54;4.73;;;4.23;;
11191;SDS011;5652;48.406;10.820;2022-08-24T08:08:23;5.93;;;4.20;;
11191;SDS011;5652;48.406;10.820;2022-08-24T08:10:50;6.30;;;4.50;;
11191;SDS011;5652;48.406;10.820;2022-08-24T08:13:17;5.13;;;4.25;;
11191;SDS011;5652;48.406;10.820;2022-08-24T08:15:46;5.53;;;4.35;;
11191;SDS011;5652;48.406;10.820;2022-08-24T08:18:13;5.50;;;4.05;;
11191;SDS011;5652;48.406;10.820;2022-08-24T08:20:41;4.68;;;3.97;;
11191;SDS011;5652;48.406;10.820;2022-08-24T08:23:08;6.15;;;4.00;;
11191;SDS011;5652;48.406;10.820;2022-08-24T08:25:54;5.23;;;3.97;;
11191;SDS011;5652;48.406;10.820;2022-08-24T08:28:22;6.10;;;3.97;;
11191;SDS011;5652;48.406;10.820;2022-08-24T08:30:51;7.43;;;4.00;;
11191;SDS011;5652;48.406;10.820;2022-08-24T08:33:18;5.00;;;3.50;;
11191;SDS011;5652;48.406;10.820;2022-08-24T08:35:45;4.23;;;3.83;;
11191;SDS011;5652;48.406;10.820;2022-08-24T08:38:13;4.20;;;3.50;;
11191;SDS011;5652;48.406;10.820;2022-08-24T08:40:42;4.60;;;3.38;;
11191;SDS011;5652;48.406;10.820;2022-08-24T08:43:22;3.90;;;3.50;;
11191;SDS011;5652;48.406;10.820;2022-08-24T08:46:01;4.70;;;3.30;;
11191;SDS011;5652;48.406;10.820;2022-08-24T08:48:42;4.35;;;3.25;;
11191;SDS011;5652;48.406;10.820;2022-08-24T08:54:25;4.10;;;3.38;;
11191;SDS011;5652;48.406;10.820;2022-08-24T08:57:00;4.37;;;3.40;;
11191;SDS011;5652;48.406;10.820;2022-08-24T08:59:36;4.75;;;3.30;;
11191;SDS011;5652;48.406;10.820;2022-08-24T09:02:11;3.57;;;3.23;;
11191;SDS011;5652;48.406;10.820;2022-08-24T09:07:34;3.95;;;2.88;;
11191;SDS011;5652;48.406;10.820;2022-08-24T09:12:55;5.50;;;3.42;;
11191;SDS011;5652;48.406;10.820;2022-08-24T09:15:31;3.90;;;2.97;;
11191;SDS011;5652;48.406;10.820;2022-08-24T09:20:53;3.17;;;2.53;;
11191;SDS011;5652;48.406;10.820;2022-08-24T09:23:24;3.15;;;2.50;;
11191;SDS011;5652;48.406;10.820;2022-08-24T09:25:56;3.15;;;2.60;;
11191;SDS011;5652;48.406;10.820;2022-08-24T09:28:39;4.70;;;2.72;;
11191;SDS011;5652;48.406;10.820;2022-08-24T09:31:28;5.88;;;2.70;;
11191;SDS011;5652;48.406;10.820;2022-08-24T09:34:05;3.35;;;2.60;;
11191;SDS011;5652;48.406;10.820;2022-08-24T09:36:37;2.80;;;2.47;;
11191;SDS011;5652;48.406;10.820;2022-08-24T09:39:06;4.53;;;2.40;;
11191;SDS011;5652;48.406;10.820;2022-08-24T09:41:53;6.68;;;2.75;;
11191;SDS011;5652;48.406;10.820;2022-08-24T09:44:28;3.00;;;2.53;;
11191;SDS011;5652;48.406;10.820;2022-08-24T09:47:07;5.10;;;2.60;;
11191;SDS011;5652;48.406;10.820;2022-08-24T09:49:41;2.97;;;2.28;;
11191;SDS011;5652;48.406;10.820;2022-08-24T09:52:24;4.97;;;2.42;;
11191;SDS011;5652;48.406;10.820;2022-08-24T09:55:01;3.30;;;2.53;;
11191;SDS011;5652;48.406;10.820;2022-08-24T09:57:42;3.10;;;2.20;;
11191;SDS011;5652;48.406;10.820;2022-08-24T10:00:14;3.55;;;2.40;;
11191;SDS011;5652;48.406;10.820;2022-08-24T10:03:00;3.72;;;2.15;;
11191;SDS011;5652;48.406;10.820;2022-08-24T10:05:34;2.33;;;2.13;;
11191;SDS011;5652;48.406;10.820;2022-08-24T10:08:12;3.10;;;2.47;;
11191;SDS011;5652;48.406;10.820;2022-08-24T10:10:46;3.40;;;2.50;;
11191;SDS011;5652;48.406;10.820;2022-08-24T10:13:18;3.13;;;2.60;;
11191;SDS011;5652;48.406;10.820;2022-08-24T10:15:49;2.88;;;2.60;;
11191;SDS011;5652;48.406;10.820;2022-08-24T10:18:25;2.85;;;2.22;;
11191;SDS011;5652;48.406;10.820;2022-08-24T10:23:52;2.80;;;2.10;;
11191;SDS011;5652;48.406;10.820;2022-08-24T10:26:25;2.87;;;2.40;;
11191;SDS011;5652;48.406;10.820;2022-08-24T10:29:04;2.45;;;2.25;;
11191;SDS011;5652;48.406;10.820;2022-08-24T10:31:38;2.90;;;2.05;;
11191;SDS011;5652;48.406;10.820;2022-08-24T10:34:14;3.37;;;2.17;;
11191;SDS011;5652;48.406;10.820;2022-08-24T10:37:05;2.90;;;2.25;;
11191;SDS011;5652;48.406;10.820;2022-08-24T10:39:48;2.65;;;2.20;;
11191;SDS011;5652;48.406;10.820;2022-08-24T10:42:34;2.85;;;2.15;;
11191;SDS011;5652;48.406;10.820;2022-08-24T10:45:30;4.27;;;2.30;;
11191;SDS011;5652;48.406;10.820;2022-08-24T10:48:03;3.10;;;2.30;;
11191;SDS011;5652;48.406;10.820;2022-08-24T10:50:42;3.38;;;2.20;;
11191;SDS011;5652;48.406;10.820;2022-08-24T10:53:22;3.97;;;2.33;;
11191;SDS011;5652;48.406;10.820;2022-08-24T10:55:55;3.67;;;2.20;;
11191;SDS011;5652;48.406;10.820;2022-08-24T10:58:36;3.55;;;2.20;;
11191;SDS011;5652;48.406;10.820;2022-08-24T11:01:15;2.80;;;2.30;;
11191;SDS011;5652;48.406;10.820;2022-08-24T11:03:47;3.28;;;2.10;;
11191;SDS011;5652;48.406;10.820;2022-08-24T11:06:15;2.58;;;2.35;;
11191;SDS011;5652;48.406;10.820;2022-08-24T11:08:50;2.30;;;2.10;;
11191;SDS011;5652;48.406;10.820;2022-08-24T11:11:23;4.30;;;2.40;;
11191;SDS011;5652;48.406;10.820;2022-08-24T11:13:52;2.67;;;2.10;;
11191;SDS011;5652;48.406;10.820;2022-08-24T11:16:23;2.95;;;2.20;;
11191;SDS011;5652;48.406;10.820;2022-08-24T11:18:53;2.95;;;2.33;;
11191;SDS011;5652;48.406;10.820;2022-08-24T11:24:03;2.53;;;2.00;;
11191;SDS011;5652;48.406;10.820;2022-08-24T11:26:45;2.63;;;2.10;;
11191;SDS011;5652;48.406;10.820;2022-08-24T11:29:13;3.42;;;2.03;;
11191;SDS011;5652;48.406;10.820;2022-08-24T11:31:40;3.35;;;1.95;;
11191;SDS011;5652;48.406;10.820;2022-08-24T11:34:09;3.35;;;1.80;;
11191;SDS011;5652;48.406;10.820;2022-08-24T11:36:40;2.10;;;1.90;;
11191;SDS011;5652;48.406;10.820;2022-08-24T11:39:13;2.25;;;1.92;;
11191;SDS011;5652;48.406;10.820;2022-08-24T11:41:47;3.05;;;1.98;;
11191;SDS011;5652;48.406;10.820;2022-08-24T11:44:16;1.90;;;1.60;;
11191;SDS011;5652;48.406;10.820;2022-08-24T11:46:46;3.60;;;1.87;;
11191;SDS011;5652;48.406;10.820;2022-08-24T11:49:16;2.85;;;1.95;;
11191;SDS011;5652;48.406;10.820;2022-08-24T11:51:48;2.20;;;2.00;;
11191;SDS011;5652;48.406;10.820;2022-08-24T11:54:18;2.00;;;1.80;;
11191;SDS011;5652;48.406;10.820;2022-08-24T11:56:54;2.38;;;1.80;;
11191;SDS011;5652;48.406;10.820;2022-08-24T11:59:28;3.25;;;1.85;;
11191;SDS011;5652;48.406;10.820;2022-08-24T12:01:59;3.50;;;1.90;;
11191;SDS011;5652;48.406;10.820;2022-08-24T12:04:35;2.75;;;2.05;;
11191;SDS011;5652;48.406;10.820;2022-08-24T12:07:07;3.33;;;2.00;;
11191;SDS011;5652;48.406;10.820;2022-08-24T12:09:41;3.28;;;1.95;;
11191;SDS011;5652;48.406;10.820;2022-08-24T12:12:13;1.90;;;1.70;;
11191;SDS011;5652;48.406;10.820;2022-08-24T12:14:47;2.93;;;1.87;;
11191;SDS011;5652;48.406;10.820;2022-08-24T12:17:20;3.10;;;1.73;;
11191;SDS011;5652;48.406;10.820;2022-08-24T12:19:50;2.50;;;1.75;;
11191;SDS011;5652;48.406;10.820;2022-08-24T12:22:18;2.13;;;1.90;;
11191;SDS011;5652;48.406;10.820;2022-08-24T12:24:48;1.95;;;1.70;;
11191;SDS011;5652;48.406;10.820;2022-08-24T12:27:18;1.77;;;1.67;;
11191;SDS011;5652;48.406;10.820;2022-08-24T12:29:47;2.50;;;1.80;;
11191;SDS011;5652;48.406;10.820;2022-08-24T12:32:18;3.05;;;1.85;;
11191;SDS011;5652;48.406;10.820;2022-08-24T12:34:47;2.22;;;1.90;;
11191;SDS011;5652;48.406;10.820;2022-08-24T12:37:18;2.10;;;1.70;;
11191;SDS011;5652;48.406;10.820;2022-08-24T12:39:48;2.40;;;1.80;;
11191;SDS011;5652;48.406;10.820;2022-08-24T12:42:19;2.00;;;1.70;;
11191;SDS011;5652;48.406;10.820;2022-08-24T12:44:49;2.20;;;1.60;;
11191;SDS011;5652;48.406;10.820;2022-08-24T12:47:18;2.10;;;1.90;;
11191;SDS011;5652;48.406;10.820;2022-08-24T12:49:47;2.55;;;1.85;;
11191;SDS011;5652;48.406;10.820;2022-08-24T12:52:25;3.00;;;1.90;;
11191;SDS011;5652;48.406;10.820;2022-08-24T12:55:02;2.10;;;1.90;;
11191;SDS011;5652;48.406;10.820;2022-08-24T12:57:37;2.13;;;1.70;;
11191;SDS011;5652;48.406;10.820;2022-08-24T13:00:11;4.25;;;1.80;;
11191;SDS011;5652;48.406;10.820;2022-08-24T13:02:39;3.40;;;2.00;;
11191;SDS011;5652;48.406;10.820;2022-08-24T13:05:10;2.90;;;2.00;;
11191;SDS011;5652;48.406;10.820;2022-08-24T13:07:39;2.35;;;1.85;;
11191;SDS011;5652;48.406;10.820;2022-08-24T13:10:09;3.13;;;2.10;;
11191;SDS011;5652;48.406;10.820;2022-08-24T13:15:51;3.20;;;1.80;;
11191;SDS011;5652;48.406;10.820;2022-08-24T13:21:32;3.00;;;1.95;;
11191;SDS011;5652;48.406;10.820;2022-08-24T13:26:45;2.50;;;1.63;;
11191;SDS011;5652;48.406;10.820;2022-08-24T13:29:13;2.00;;;1.80;;
11191;SDS011;5652;48.406;10.820;2022-08-24T13:31:43;2.00;;;1.73;;
11191;SDS011;5652;48.406;10.820;2022-08-24T13:37:03;2.15;;;1.90;;
11191;SDS011;5652;48.406;10.820;2022-08-24T13:39:53;2.78;;;1.70;;
11191;SDS011;5652;48.406;10.820;2022-08-24T13:42:29;1.98;;;1.75;;
11191;SDS011;5652;48.406;10.820;2022-08-24T13:45:07;3.37;;;1.83;;
11191;SDS011;5652;48.406;10.820;2022-08-24T13:47:47;4.63;;;1.80;;
11191;SDS011;5652;48.406;10.820;2022-08-24T13:50:26;2.60;;;1.70;;
11191;SDS011;5652;48.406;10.820;2022-08-24T13:52:56;1.80;;;1.70;;
11191;SDS011;5652;48.406;10.820;2022-08-24T13:55:31;2.03;;;1.67;;
11191;SDS011;5652;48.406;10.820;2022-08-24T14:00:53;2.60;;;1.75;;
11191;SDS011;5652;48.406;10.820;2022-08-24T14:03:29;2.27;;;1.80;;
11191;SDS011;5652;48.406;10.820;2022-08-24T14:06:00;2.13;;;1.90;;
11191;SDS011;5652;48.406;10.820;2022-08-24T14:08:31;3.30;;;1.95;;
11191;SDS011;5652;48.406;10.820;2022-08-24T14:11:03;2.47;;;1.73;;
11191;SDS011;5652;48.406;10.820;2022-08-24T14:16:23;2.80;;;1.80;;
11191;SDS011;5652;48.406;10.820;2022-08-24T14:19:13;2.13;;;1.73;;
11191;SDS011;5652;48.406;10.820;2022-08-24T14:21:44;2.88;;;1.88;;
11191;SDS011;5652;48.406;10.820;2022-08-24T14:24:17;1.83;;;1.50;;
11191;SDS011;5652;48.406;10.820;2022-08-24T14:27:02;1.75;;;1.52;;
11191;SDS011;5652;48.406;10.820;2022-08-24T14:32:25;2.20;;;1.60;;
11191;SDS011;5652;48.406;10.820;2022-08-24T14:34:57;2.17;;;1.60;;
11191;SDS011;5652;48.406;10.820;2022-08-24T14:37:29;1.95;;;1.63;;
11191;SDS011;5652;48.406;10.820;2022-08-24T14:40:03;2.60;;;1.73;;
11191;SDS011;5652;48.406;10.820;2022-08-24T14:42:34;1.95;;;1.60;;
11191;SDS011;5652;48.406;10.820;2022-08-24T14:45:05;1.67;;;1.52;;
11191;SDS011;5652;48.406;10.820;2022-08-24T14:47:36;1.52;;;1.40;;
11191;SDS011;5652;48.406;10.820;2022-08-24T14:50:10;2.30;;;1.45;;
11191;SDS011;5652;48.406;10.820;2022-08-24T14:52:42;2.10;;;1.50;;
11191;SDS011;5652;48.406;10.820;2022-08-24T14:55:11;1.67;;;1.53;;
11191;SDS011;5652;48.406;10.820;2022-08-24T14:57:43;1.63;;;1.50;;
11191;SDS011;5652;48.406;10.820;2022-08-24T15:00:14;1.83;;;1.73;;
11191;SDS011;5652;48.406;10.820;2022-08-24T15:02:54;2.90;;;1.52;;
11191;SDS011;5652;48.406;10.820;2022-08-24T15:05:27;2.20;;;1.90;;
11191;SDS011;5652;48.406;10.820;2022-08-24T15:08:04;2.13;;;1.70;;
11191;SDS011;5652;48.406;10.820;2022-08-24T15:10:33;1.95;;;1.60;;
11191;SDS011;5652;48.406;10.820;2022-08-24T15:13:03;1.88;;;1.70;;
11191;SDS011;5652;48.406;10.820;2022-08-24T15:15:33;2.50;;;1.50;;
11191;SDS011;5652;48.406;10.820;2022-08-24T15:18:04;1.60;;;1.50;;
11191;SDS011;5652;48.406;10.820;2022-08-24T15:20:43;3.00;;;1.50;;
11191;SDS011;5652;48.406;10.820;2022-08-24T15:23:12;1.83;;;1.38;;
11191;SDS011;5652;48.406;10.820;2022-08-24T15:25:43;1.67;;;1.50;;
11191;SDS011;5652;48.406;10.820;2022-08-24T15:28:14;1.60;;;1.50;;
11191;SDS011;5652;48.406;10.820;2022-08-24T15:30:52;2.08;;;1.60;;
11191;SDS011;5652;48.406;10.820;2022-08-24T15:33:19;1.48;;;1.35;;
11191;SDS011;5652;48.406;10.820;2022-08-24T15:35:48;1.98;;;1.40;;
11191;SDS011;5652;48.406;10.820;2022-08-24T15:38:18;3.65;;;1.75;;
11191;SDS011;5652;48.406;10.820;2022-08-24T15:40:45;2.00;;;1.50;;
11191;SDS011;5652;48.406;10.820;2022-08-24T15:43:13;1.80;;;1.50;;
11191;SDS011;5652;48.406;10.820;2022-08-24T15:45:42;1.70;;;1.60;;